Amenia, New York
Current Conditions -  °F | °C
As of 7:53 AM on Wednesday 22 Oct 2014 (Local Time) from KPOU Reporting Station
Overcast Overcast  
Wind Chill: 52°   Ceiling: 1000
Heat Index: 52°   Visibility: 10mi
Dew Point: 48°   Wind: 8mph
Humidity: 86%   Direction: 360°N
Pressure: 29.99"   Gusts: NA
Location:  41.85°N, 73.55°W
Report Text: KPOU 221153Z AUTO 36007KT 10SM OVC010 11/09 A2999 RMK AO2 SLP153 70020 T01110089 10117 20111 53014 TSNO
Loading
Personal Weather Stations






























Interactive Weather Map
Tropical Storm Tracking
New forecast layout! Learn more

10-Day Weather Forecast

Advertisements
Track Severe Weather on mobile